Time;durP1;ratioP1;P1;durP2;ratioP2;P2;SDS_P1;SDS_P2;PMS_P1;PMS_P2;Temp;Humidity;BMP_temperature;BMP_pressure;BME280_temperature;BME280_humidity;BME280_pressure;Samples;Min_cycle;Max_cycle;Signal;HPM_P1;HPM_P2
2022/11/07 00:00:10;;;;;;;11.85;7.38;;;10.20;99.90;;;;;;5014415;28;20045;-67
2022/11/07 00:02:37;;;;;;;10.55;7.18;;;10.20;99.90;;;;;;5014321;28;20049;-67
2022/11/07 00:05:04;;;;;;;13.05;7.35;;;10.20;99.90;;;;;;5013222;28;20091;-67
2022/11/07 00:07:31;;;;;;;11.98;7.95;;;10.30;99.90;;;;;;5031002;28;20046;-68
2022/11/07 00:09:58;;;;;;;8.82;7.30;;;10.30;99.90;;;;;;5031555;28;20112;-68
2022/11/07 00:12:27;;;;;;;14.07;7.05;;;10.30;99.90;;;;;;5011067;28;20555;-68
2022/11/07 00:14:54;;;;;;;12.05;6.90;;;10.30;99.90;;;;;;5013779;28;20065;-67
2022/11/07 00:17:20;;;;;;;10.68;6.72;;;10.40;99.90;;;;;;5010965;28;20058;-68
2022/11/07 00:19:48;;;;;;;12.93;7.60;;;10.40;99.90;;;;;;5030256;28;20057;-67
2022/11/07 00:22:15;;;;;;;14.02;7.95;;;10.40;99.90;;;;;;5031832;28;20041;-67
2022/11/07 00:24:41;;;;;;;9.82;6.45;;;10.40;99.90;;;;;;5013124;28;20133;-67
2022/11/07 00:27:08;;;;;;;10.90;6.97;;;10.40;99.90;;;;;;5013978;28;20057;-67
2022/11/07 00:29:36;;;;;;;13.13;7.35;;;10.40;99.90;;;;;;5013678;28;20088;-68
2022/11/07 00:32:03;;;;;;;12.25;7.15;;;10.50;99.90;;;;;;5013221;28;20103;-67
2022/11/07 00:34:34;;;;;;;10.15;6.68;;;10.40;99.90;;;;;;5014096;28;20107;-67
2022/11/07 00:37:01;;;;;;;11.65;6.90;;;10.40;99.90;;;;;;5031829;28;20080;-68
2022/11/07 00:39:27;;;;;;;17.80;8.13;;;10.40;99.90;;;;;;5012707;28;20080;-68
2022/11/07 00:41:54;;;;;;;13.48;7.07;;;10.30;99.90;;;;;;5013706;28;20049;-67
2022/11/07 00:44:21;;;;;;;10.68;7.13;;;10.40;99.90;;;;;;5013466;28;20108;-66
2022/11/07 00:46:49;;;;;;;15.48;7.43;;;10.40;99.90;;;;;;5011886;28;20172;-66
2022/11/07 00:49:16;;;;;;;10.13;6.80;;;10.40;99.90;;;;;;5010760;28;20053;-66
2022/11/07 00:51:43;;;;;;;12.10;7.05;;;10.50;99.90;;;;;;5031545;28;20104;-66
2022/11/07 00:54:10;;;;;;;15.52;7.30;;;10.50;99.90;;;;;;5030887;28;20080;-66
2022/11/07 00:56:37;;;;;;;17.67;8.55;;;10.50;99.90;;;;;;5031133;28;20049;-66
2022/11/07 00:59:04;;;;;;;13.93;7.28;;;10.50;99.90;;;;;;5031508;28;20053;-66
2022/11/07 01:01:33;;;;;;;12.05;6.80;;;10.50;99.90;;;;;;5030510;28;20081;-67
2022/11/07 01:06:46;;;;;;;14.73;7.40;;;10.40;99.90;;;;;;5011978;28;20038;-66
2022/11/07 01:09:17;;;;;;;12.80;6.72;;;10.40;99.90;;;;;;5014040;28;20046;-67
2022/11/07 01:11:44;;;;;;;14.15;7.75;;;10.40;99.90;;;;;;5013476;28;20057;-67
2022/11/07 01:14:15;;;;;;;15.75;6.60;;;10.40;99.90;;;;;;5030491;28;20551;-67
2022/11/07 01:16:42;;;;;;;11.38;7.13;;;10.30;99.90;;;;;;5010630;28;20455;-66
2022/11/07 01:19:11;;;;;;;11.63;6.50;;;10.40;99.90;;;;;;5034462;28;20064;-67
2022/11/07 01:21:38;;;;;;;12.20;6.88;;;10.40;99.90;;;;;;5016509;28;20123;-67
2022/11/07 01:24:06;;;;;;;11.68;6.13;;;10.40;99.90;;;;;;5016936;28;20571;-67
2022/11/07 01:26:33;;;;;;;11.63;6.95;;;10.50;99.90;;;;;;5034481;28;20053;-66
2022/11/07 01:29:00;;;;;;;11.18;6.53;;;10.50;99.90;;;;;;5034082;28;20107;-67
2022/11/07 01:31:30;;;;;;;19.23;7.28;;;10.50;99.90;;;;;;5034742;28;20099;-66
2022/11/07 01:33:57;;;;;;;12.23;7.30;;;10.50;99.90;;;;;;5017243;28;20054;-67
2022/11/07 01:36:25;;;;;;;12.85;8.05;;;10.50;99.90;;;;;;5033450;28;20099;-67
2022/11/07 01:38:52;;;;;;;12.38;6.93;;;10.50;99.90;;;;;;5017175;28;20669;-67
2022/11/07 01:41:23;;;;;;;10.50;6.97;;;10.50;99.90;;;;;;5033544;28;20053;-67
2022/11/07 01:43:53;;;;;;;13.55;6.45;;;10.40;99.90;;;;;;5032126;28;20046;-67
2022/11/07 01:46:21;;;;;;;13.85;6.75;;;10.40;99.90;;;;;;5030454;28;20532;-68
2022/11/07 01:48:54;;;;;;;14.63;8.02;;;10.40;99.90;;;;;;5033341;28;20052;-68
2022/11/07 01:51:23;;;;;;;12.00;7.00;;;10.40;99.90;;;;;;5015480;28;20049;-66
2022/11/07 01:53:53;;;;;;;14.57;7.28;;;10.40;99.90;;;;;;5032213;28;20571;-67
2022/11/07 01:56:23;;;;;;;12.85;7.07;;;10.30;99.90;;;;;;5032738;28;20052;-68
2022/11/07 01:58:52;;;;;;;9.68;7.03;;;10.30;99.90;;;;;;5034184;28;20516;-67
2022/11/07 02:01:19;;;;;;;12.02;7.60;;;10.30;99.90;;;;;;5015670;28;20415;-68
2022/11/07 02:03:47;;;;;;;14.02;7.22;;;10.30;99.90;;;;;;5032946;28;20103;-68
2022/11/07 02:06:20;;;;;;;13.18;7.40;;;10.30;99.90;;;;;;5034229;28;20047;-68
2022/11/07 02:08:49;;;;;;;12.90;6.72;;;10.40;99.90;;;;;;5033888;28;20103;-67
2022/11/07 02:11:18;;;;;;;13.93;7.28;;;10.40;99.90;;;;;;5015230;28;20073;-67
2022/11/07 02:13:45;;;;;;;15.13;6.70;;;10.40;99.90;;;;;;5016139;28;20107;-67
2022/11/07 02:16:12;;;;;;;12.00;6.40;;;10.30;99.90;;;;;;5032956;28;20046;-68
2022/11/07 02:18:41;;;;;;;14.07;6.15;;;10.30;99.90;;;;;;5032722;28;20057;-67
2022/11/07 02:21:16;;;;;;;8.73;6.15;;;10.30;99.90;;;;;;5033782;28;20064;-68
2022/11/07 02:23:49;;;;;;;10.68;6.30;;;10.30;99.90;;;;;;5033837;28;20046;-68
2022/11/07 02:26:18;;;;;;;10.63;5.00;;;10.30;99.90;;;;;;5015843;28;20049;-66
2022/11/07 02:28:48;;;;;;;10.57;6.00;;;10.30;99.90;;;;;;5015253;28;20053;-67
2022/11/07 02:31:14;;;;;;;12.45;5.47;;;10.30;99.90;;;;;;5012835;28;20057;-68
2022/11/07 02:33:41;;;;;;;9.48;5.10;;;10.30;99.90;;;;;;5016005;28;20083;-68
2022/11/07 02:36:12;;;;;;;13.75;5.13;;;10.30;99.90;;;;;;5030816;28;20111;-67
2022/11/07 02:38:39;;;;;;;9.07;5.22;;;10.30;99.90;;;;;;5012301;28;20465;-67
2022/11/07 02:41:10;;;;;;;14.10;5.35;;;10.30;99.90;;;;;;5033058;28;20493;-67
2022/11/07 02:43:41;;;;;;;12.93;4.75;;;10.40;99.90;;;;;;5033696;28;20052;-67
2022/11/07 02:46:11;;;;;;;10.02;4.63;;;10.40;99.90;;;;;;5014155;28;20464;-67
2022/11/07 02:48:42;;;;;;;11.73;4.40;;;10.30;99.90;;;;;;5032641;28;20552;-67
2022/11/07 02:51:09;;;;;;;10.65;4.40;;;10.30;99.90;;;;;;5031085;28;20045;-67
2022/11/07 02:53:36;;;;;;;13.63;5.15;;;10.30;99.90;;;;;;5032602;28;20103;-67
2022/11/07 02:56:03;;;;;;;12.05;4.85;;;10.20;99.90;;;;;;5015730;28;20482;-66
2022/11/07 02:58:30;;;;;;;8.80;4.50;;;10.20;99.90;;;;;;5015341;28;21365;-66
2022/11/07 03:01:01;;;;;;;17.60;5.50;;;10.30;99.90;;;;;;5014526;28;20045;-68
2022/11/07 03:03:29;;;;;;;7.47;4.13;;;10.30;99.90;;;;;;5033067;28;20461;-67
2022/11/07 03:05:56;;;;;;;8.30;4.03;;;10.30;99.90;;;;;;5013649;28;20402;-68
2022/11/07 03:08:23;;;;;;;9.20;3.92;;;10.40;99.90;;;;;;5031235;28;20080;-67
2022/11/07 03:10:50;;;;;;;7.72;3.53;;;10.30;99.90;;;;;;5030947;28;20053;-66
2022/11/07 03:13:17;;;;;;;7.60;4.00;;;10.30;99.90;;;;;;5032095;28;20444;-67
2022/11/07 03:15:43;;;;;;;12.43;4.32;;;10.30;99.90;;;;;;5032170;28;20493;-66
2022/11/07 03:18:12;;;;;;;7.45;3.95;;;10.20;99.90;;;;;;5014957;28;20456;-66
2022/11/07 03:20:38;;;;;;;10.85;3.75;;;10.30;99.90;;;;;;5014119;28;20049;-67
2022/11/07 03:23:05;;;;;;;11.60;5.32;;;10.20;99.90;;;;;;5032743;28;20045;-67
2022/11/07 03:25:32;;;;;;;12.93;4.75;;;10.20;99.90;;;;;;5032455;28;20103;-67
2022/11/07 03:27:59;;;;;;;9.93;4.53;;;10.30;99.90;;;;;;5031717;28;20053;-68
2022/11/07 03:30:26;;;;;;;11.07;4.30;;;10.40;99.90;;;;;;5032320;28;20051;-68
2022/11/07 03:32:53;;;;;;;11.85;4.80;;;10.40;99.90;;;;;;5032305;28;20053;-66
2022/11/07 03:35:22;;;;;;;14.38;5.30;;;10.40;99.90;;;;;;5012809;28;20049;-67
2022/11/07 03:37:49;;;;;;;17.17;5.45;;;10.40;99.90;;;;;;5014652;28;20057;-68
2022/11/07 03:40:17;;;;;;;15.65;4.20;;;10.40;99.90;;;;;;5014835;28;20045;-67
2022/11/07 03:42:45;;;;;;;10.88;4.78;;;10.50;99.90;;;;;;5013685;28;20103;-68
2022/11/07 03:45:13;;;;;;;8.45;4.22;;;10.50;99.90;;;;;;5012254;28;20159;-68
2022/11/07 03:47:42;;;;;;;11.75;3.95;;;10.50;99.90;;;;;;5013324;28;20045;-67
2022/11/07 03:50:11;;;;;;;12.35;4.38;;;10.40;99.90;;;;;;5013345;28;20057;-67
2022/11/07 03:52:39;;;;;;;11.60;4.05;;;10.40;99.90;;;;;;5030072;28;20042;-67
2022/11/07 03:55:07;;;;;;;7.25;3.75;;;10.40;99.90;;;;;;5014702;28;20057;-66
2022/11/07 03:57:34;;;;;;;15.40;4.10;;;10.40;99.90;;;;;;5013243;28;20049;-66
2022/11/07 04:00:01;;;;;;;11.90;4.07;;;10.40;99.90;;;;;;5032089;28;20052;-68
2022/11/07 04:02:28;;;;;;;9.10;4.25;;;10.40;99.90;;;;;;5031269;28;20100;-67
2022/11/07 04:04:55;;;;;;;9.82;4.25;;;10.40;99.90;;;;;;5030772;28;20045;-67
2022/11/07 04:07:22;;;;;;;9.32;3.97;;;10.30;99.90;;;;;;5031780;28;20382;-67
2022/11/07 04:09:50;;;;;;;11.35;4.38;;;10.30;99.90;;;;;;5028862;28;20486;-68
2022/11/07 04:17:46;;;;;;;7.97;3.85;;;10.30;99.90;;;;;;5013258;28;20042;-67
2022/11/07 04:20:12;;;;;;;12.00;4.70;;;10.30;99.90;;;;;;5014134;28;20049;-67
2022/11/07 04:22:39;;;;;;;10.45;3.92;;;10.30;99.90;;;;;;5031626;28;20511;-67
2022/11/07 04:25:09;;;;;;;9.50;4.10;;;10.20;99.90;;;;;;5013067;28;20132;-67
2022/11/07 04:27:45;;;;;;;10.43;3.90;;;10.20;99.90;;;;;;5014046;28;20489;-67
2022/11/07 04:30:23;;;;;;;17.27;4.28;;;10.20;99.90;;;;;;5032022;28;20099;-68
2022/11/07 04:32:51;;;;;;;9.50;4.10;;;10.20;99.90;;;;;;5011368;28;20056;-67
2022/11/07 04:35:19;;;;;;;13.15;4.55;;;10.20;99.90;;;;;;5012775;28;20210;-67
2022/11/07 04:37:47;;;;;;;10.98;3.75;;;10.20;99.90;;;;;;5012756;28;20046;-67
2022/11/07 04:40:16;;;;;;;11.32;4.20;;;10.30;99.90;;;;;;5014028;28;20452;-67
2022/11/07 04:42:44;;;;;;;12.02;3.92;;;10.30;99.90;;;;;;5031382;28;20053;-67
2022/11/07 04:45:12;;;;;;;12.52;4.35;;;10.20;99.90;;;;;;5011360;28;20057;-67
2022/11/07 04:47:40;;;;;;;13.52;4.05;;;10.30;99.90;;;;;;5031479;28;20041;-67
2022/11/07 04:50:09;;;;;;;12.05;4.40;;;10.30;99.90;;;;;;5014082;28;20111;-67
2022/11/07 04:52:37;;;;;;;12.87;5.50;;;10.30;99.90;;;;;;5013479;28;20053;-67
2022/11/07 04:55:04;;;;;;;17.92;4.68;;;10.30;99.90;;;;;;5017691;28;20091;-67
2022/11/07 04:57:32;;;;;;;13.15;4.93;;;10.30;99.90;;;;;;5035430;28;20096;-66
2022/11/07 04:59:59;;;;;;;14.27;4.72;;;10.30;99.90;;;;;;5017075;28;20057;-66
2022/11/07 05:02:26;;;;;;;11.75;4.63;;;10.30;99.90;;;;;;5034711;28;20057;-67
2022/11/07 05:04:53;;;;;;;14.30;6.07;;;10.40;99.90;;;;;;5016921;28;20053;-67
2022/11/07 05:07:20;;;;;;;14.27;5.38;;;10.40;99.90;;;;;;5032220;28;20052;-68
2022/11/07 05:09:47;;;;;;;14.20;5.50;;;10.40;99.90;;;;;;5035144;28;20049;-67
2022/11/07 05:12:14;;;;;;;13.88;5.80;;;10.40;99.90;;;;;;5015252;28;20050;-69
2022/11/07 05:14:42;;;;;;;11.32;4.88;;;10.30;99.90;;;;;;5034046;28;20412;-68
2022/11/07 05:17:13;;;;;;;14.10;5.13;;;10.30;99.90;;;;;;5015223;28;20099;-68
2022/11/07 05:19:41;;;;;;;8.98;4.72;;;10.20;99.90;;;;;;5034760;28;20534;-68
2022/11/07 05:24:53;;;;;;;11.75;4.88;;;10.10;99.90;;;;;;5016833;28;20402;-68
2022/11/07 05:27:21;;;;;;;14.15;5.50;;;10.20;99.90;;;;;;5016431;28;20140;-69
2022/11/07 05:29:49;;;;;;;10.82;5.15;;;10.10;99.90;;;;;;5016938;28;20095;-68
2022/11/07 05:32:16;;;;;;;11.10;5.60;;;10.00;99.90;;;;;;5017044;28;20045;-68
2022/11/07 05:34:43;;;;;;;14.40;5.15;;;10.00;99.90;;;;;;5032676;28;20103;-68
2022/11/07 05:37:12;;;;;;;13.07;5.10;;;10.00;99.90;;;;;;5017137;28;20049;-68
2022/11/07 05:39:39;;;;;;;13.25;5.53;;;10.00;99.90;;;;;;5016929;28;20051;-68
2022/11/07 05:42:06;;;;;;;11.02;4.93;;;10.00;99.90;;;;;;5015725;28;20095;-68
2022/11/07 05:44:33;;;;;;;12.80;5.63;;;9.90;99.90;;;;;;5034184;28;20061;-69
2022/11/07 05:47:01;;;;;;;14.05;6.07;;;9.90;99.90;;;;;;5016413;28;20045;-67
2022/11/07 05:49:28;;;;;;;9.85;5.30;;;9.90;99.90;;;;;;5033691;28;20124;-67
2022/11/07 05:51:55;;;;;;;13.65;5.88;;;10.00;99.90;;;;;;5016768;28;20119;-67
2022/11/07 05:54:23;;;;;;;15.05;6.13;;;10.00;99.90;;;;;;5034086;28;20049;-67
2022/11/07 05:56:50;;;;;;;12.70;6.18;;;10.00;99.90;;;;;;5016163;28;20052;-68
2022/11/07 05:59:17;;;;;;;10.23;5.75;;;10.00;99.90;;;;;;5016599;28;20049;-67
2022/11/07 06:01:44;;;;;;;12.90;6.18;;;10.10;99.90;;;;;;5009980;28;20112;-67
2022/11/07 06:04:12;;;;;;;13.98;6.07;;;10.10;99.90;;;;;;5018774;28;20045;-65
2022/11/07 06:06:39;;;;;;;11.63;4.88;;;10.20;99.90;;;;;;5024478;28;20053;-64
2022/11/07 06:09:05;;;;;;;13.35;6.20;;;10.20;99.90;;;;;;5009375;28;20104;-65
2022/11/07 06:11:32;;;;;;;10.02;5.80;;;10.20;99.90;;;;;;5031301;28;20045;-65
2022/11/07 06:13:59;;;;;;;16.70;5.68;;;10.20;99.90;;;;;;5012030;28;20056;-66
2022/11/07 06:16:27;;;;;;;13.73;6.25;;;10.20;99.90;;;;;;5025307;28;20057;-65
2022/11/07 06:18:54;;;;;;;20.15;7.30;;;10.20;99.90;;;;;;5026551;28;20111;-63
2022/11/07 06:21:22;;;;;;;10.50;6.40;;;10.20;99.90;;;;;;5013464;28;20084;-66
2022/11/07 06:23:49;;;;;;;12.05;5.30;;;10.20;99.90;;;;;;5027826;28;20452;-65
2022/11/07 06:26:16;;;;;;;13.38;6.60;;;10.00;99.90;;;;;;5026577;28;20060;-65
2022/11/07 06:28:43;;;;;;;15.52;6.15;;;10.20;99.90;;;;;;5011178;28;20045;-65
2022/11/07 06:31:10;;;;;;;17.98;6.90;;;10.20;99.90;;;;;;5012753;28;20042;-65
2022/11/07 06:33:36;;;;;;;12.57;6.10;;;10.20;99.90;;;;;;5006682;28;20480;-64
2022/11/07 06:36:08;;;;;;;14.10;6.65;;;10.10;99.90;;;;;;5026445;28;20049;-65
2022/11/07 06:38:36;;;;;;;14.77;6.18;;;10.20;99.90;;;;;;5025624;28;20452;-65
2022/11/07 06:41:07;;;;;;;18.05;6.57;;;10.20;99.90;;;;;;5010301;28;20045;-65
2022/11/07 06:43:34;;;;;;;10.85;6.15;;;10.10;99.90;;;;;;5010444;28;20087;-64
2022/11/07 06:46:03;;;;;;;13.13;5.93;;;10.10;99.90;;;;;;5011414;28;20057;-64
2022/11/07 06:48:30;;;;;;;16.50;5.95;;;10.10;99.90;;;;;;5007778;28;20052;-64
2022/11/07 06:50:58;;;;;;;14.82;5.80;;;10.10;99.90;;;;;;5009069;28;20103;-65
2022/11/07 06:53:25;;;;;;;16.90;6.07;;;10.10;99.90;;;;;;5026451;28;20460;-64
2022/11/07 06:55:54;;;;;;;12.55;4.97;;;10.10;99.90;;;;;;5006219;28;20041;-64
2022/11/07 06:58:22;;;;;;;12.63;5.15;;;10.10;99.90;;;;;;5008644;28;20050;-64
2022/11/07 07:00:49;;;;;;;11.63;4.60;;;10.10;99.90;;;;;;5029230;28;20041;-64
2022/11/07 07:03:16;;;;;;;11.57;4.90;;;10.10;99.90;;;;;;5012026;28;20132;-64
2022/11/07 07:05:43;;;;;;;9.80;4.55;;;10.10;99.90;;;;;;5007775;28;20591;-64
2022/11/07 07:08:12;;;;;;;9.02;4.38;;;10.10;99.90;;;;;;5012809;28;20049;-64
2022/11/07 07:10:42;;;;;;;10.00;4.70;;;10.20;99.90;;;;;;5024968;28;20412;-64
2022/11/07 07:13:11;;;;;;;10.02;4.65;;;10.10;99.90;;;;;;5010868;28;20107;-64
2022/11/07 07:15:38;;;;;;;10.90;4.82;;;10.10;99.90;;;;;;5011734;28;20046;-66
2022/11/07 07:18:05;;;;;;;10.68;4.70;;;10.10;99.90;;;;;;5027563;28;20112;-61
2022/11/07 07:20:32;;;;;;;12.32;4.90;;;10.10;99.90;;;;;;5022529;28;20057;-60
2022/11/07 07:22:59;;;;;;;12.80;4.85;;;10.20;99.90;;;;;;5008667;28;20053;-60
2022/11/07 07:25:27;;;;;;;17.48;5.65;;;10.10;99.90;;;;;;5008315;28;20069;-61
2022/11/07 07:27:54;;;;;;;10.43;5.93;;;10.20;99.90;;;;;;5025988;28;20049;-60
2022/11/07 07:30:23;;;;;;;16.52;7.15;;;10.20;99.90;;;;;;5024112;28;20473;-61
2022/11/07 07:32:50;;;;;;;14.68;6.10;;;10.20;99.90;;;;;;5028839;28;20523;-61
2022/11/07 07:35:17;;;;;;;17.35;8.40;;;10.20;99.90;;;;;;5007182;28;20060;-62
2022/11/07 07:37:44;;;;;;;19.58;6.75;;;10.30;99.90;;;;;;5028148;28;20587;-62
2022/11/07 07:40:11;;;;;;;13.68;7.60;;;10.30;99.90;;;;;;5005883;28;20057;-62
2022/11/07 07:42:42;;;;;;;15.85;7.20;;;10.30;99.90;;;;;;5006609;28;20119;-60
2022/11/07 07:45:11;;;;;;;23.48;7.97;;;10.30;99.90;;;;;;5007751;28;20448;-60
2022/11/07 07:47:39;;;;;;;25.83;8.10;;;10.40;99.90;;;;;;5025470;28;20037;-61
2022/11/07 07:50:08;;;;;;;19.92;8.45;;;10.40;99.90;;;;;;5025373;28;20049;-62
2022/11/07 07:52:35;;;;;;;19.27;8.95;;;10.40;99.90;;;;;;5005193;28;20049;-61
2022/11/07 07:55:02;;;;;;;17.92;8.98;;;10.40;99.90;;;;;;5009838;28;20050;-61
2022/11/07 07:57:29;;;;;;;19.55;8.15;;;10.40;99.90;;;;;;5024650;28;20053;-61
2022/11/07 07:59:56;;;;;;;14.05;8.02;;;10.50;99.90;;;;;;5012498;28;20099;-60
2022/11/07 08:02:23;;;;;;;21.00;8.27;;;10.40;99.90;;;;;;5022934;28;20049;-60
2022/11/07 08:04:51;;;;;;;16.30;9.30;;;10.50;99.90;;;;;;5024183;28;20394;-62
2022/11/07 08:07:18;;;;;;;21.95;8.85;;;10.50;99.90;;;;;;5024593;28;20367;-62
2022/11/07 08:09:45;;;;;;;28.67;10.10;;;10.40;99.90;;;;;;5030337;28;20046;-64
2022/11/07 08:12:12;;;;;;;22.05;8.27;;;10.50;99.90;;;;;;5030273;28;20127;-63
2022/11/07 08:14:38;;;;;;;20.60;8.50;;;10.50;99.90;;;;;;5031522;28;20472;-63
2022/11/07 08:17:05;;;;;;;16.77;8.18;;;10.60;99.90;;;;;;5030636;28;20053;-63
2022/11/07 08:19:32;;;;;;;16.10;8.02;;;10.50;99.90;;;;;;5031716;28;20445;-62
2022/11/07 08:22:00;;;;;;;17.33;8.15;;;10.60;99.90;;;;;;5013593;28;20543;-63
2022/11/07 08:24:27;;;;;;;15.23;8.30;;;10.60;99.90;;;;;;5030369;28;20041;-62
2022/11/07 08:26:54;;;;;;;13.35;8.70;;;10.60;99.90;;;;;;5012560;28;20107;-62
2022/11/07 08:29:21;;;;;;;15.93;8.20;;;10.70;99.90;;;;;;5035925;28;20413;-62
2022/11/07 08:31:49;;;;;;;18.55;9.20;;;10.70;99.90;;;;;;5034996;28;20045;-62
2022/11/07 08:34:16;;;;;;;18.58;8.13;;;10.60;99.90;;;;;;5018093;28;20132;-63
2022/11/07 08:36:43;;;;;;;21.65;8.30;;;10.70;99.90;;;;;;5034267;28;20452;-63
2022/11/07 08:39:11;;;;;;;13.80;7.97;;;10.70;99.90;;;;;;5017321;28;20053;-62
2022/11/07 08:41:38;;;;;;;15.30;7.85;;;10.70;99.90;;;;;;5018027;28;20107;-62
2022/11/07 08:44:07;;;;;;;19.40;8.15;;;10.70;99.90;;;;;;5017363;28;20056;-62
2022/11/07 08:46:34;;;;;;;19.52;9.10;;;10.70;99.90;;;;;;5035377;28;20045;-62
2022/11/07 08:49:00;;;;;;;18.77;7.93;;;10.70;99.90;;;;;;5015806;28;20041;-62
2022/11/07 08:51:27;;;;;;;18.42;6.85;;;10.80;99.90;;;;;;5034310;28;20095;-61
2022/11/07 08:53:54;;;;;;;19.80;8.43;;;10.80;99.90;;;;;;5017671;28;20091;-61
2022/11/07 08:56:22;;;;;;;23.08;9.30;;;10.80;99.90;;;;;;5034045;28;20434;-62
2022/11/07 08:58:49;;;;;;;20.42;8.90;;;10.90;99.90;;;;;;5034475;28;20493;-62
2022/11/07 09:01:16;;;;;;;17.65;7.63;;;10.80;99.90;;;;;;5017688;28;20049;-63
2022/11/07 09:03:43;;;;;;;18.00;8.15;;;10.80;99.90;;;;;;5035648;28;20045;-63
2022/11/07 09:06:10;;;;;;;16.67;7.75;;;10.80;99.90;;;;;;5016624;28;20085;-62
2022/11/07 09:08:37;;;;;;;18.80;8.13;;;10.90;99.90;;;;;;5017497;28;20099;-63
2022/11/07 09:11:05;;;;;;;14.85;6.60;;;10.90;99.90;;;;;;5017484;28;20053;-61
2022/11/07 09:13:34;;;;;;;19.98;6.88;;;11.00;99.90;;;;;;5034465;28;20524;-62
2022/11/07 09:16:02;;;;;;;13.52;6.85;;;11.00;99.90;;;;;;5032856;28;20046;-62
2022/11/07 09:18:30;;;;;;;13.27;6.85;;;11.10;99.90;;;;;;5017031;28;20049;-64
2022/11/07 09:20:58;;;;;;;19.67;6.22;;;11.10;99.90;;;;;;5034291;28;20049;-63
2022/11/07 09:23:25;;;;;;;24.38;7.47;;;11.10;99.90;;;;;;5017518;28;20501;-61
2022/11/07 09:25:52;;;;;;;18.30;6.80;;;11.20;99.90;;;;;;5033637;28;20566;-63
2022/11/07 09:28:19;;;;;;;16.35;7.40;;;11.20;99.90;;;;;;5016529;28;20097;-62
2022/11/07 09:30:47;;;;;;;16.52;5.70;;;11.30;99.90;;;;;;5034894;28;20049;-63
2022/11/07 09:33:14;;;;;;;13.30;6.03;;;11.30;99.90;;;;;;5013006;28;20064;-63
2022/11/07 09:35:41;;;;;;;18.15;6.63;;;11.40;99.90;;;;;;5016623;28;20440;-61
2022/11/07 09:38:07;;;;;;;18.42;6.60;;;11.40;99.90;;;;;;5034679;28;20053;-61
2022/11/07 09:40:47;;;;;;;13.20;6.40;;;11.40;99.90;;;;;;5016418;28;20046;-63
2022/11/07 09:43:30;;;;;;;19.23;6.30;;;11.40;99.90;;;;;;5016957;28;20053;-63
2022/11/07 09:46:09;;;;;;;12.75;4.97;;;11.50;99.90;;;;;;5034253;28;20091;-64
2022/11/07 09:48:42;;;;;;;22.60;7.55;;;11.50;99.90;;;;;;5015642;28;20053;-66
2022/11/07 09:51:15;;;;;;;14.18;5.63;;;11.50;99.90;;;;;;5034527;28;21330;-62
2022/11/07 09:53:46;;;;;;;16.40;5.95;;;11.60;99.90;;;;;;5034647;28;20124;-61
2022/11/07 09:56:15;;;;;;;11.95;6.05;;;11.60;99.90;;;;;;5032614;28;20045;-62
2022/11/07 09:58:44;;;;;;;16.75;5.70;;;11.60;99.90;;;;;;5014434;28;20049;-63
2022/11/07 10:01:16;;;;;;;12.93;4.93;;;11.60;99.90;;;;;;5034296;28;20044;-62
2022/11/07 10:03:43;;;;;;;15.85;5.80;;;11.60;99.90;;;;;;5033694;28;20479;-64
2022/11/07 10:06:20;;;;;;;14.18;4.82;;;11.60;99.90;;;;;;5033968;28;20381;-63
2022/11/07 10:08:52;;;;;;;13.27;5.07;;;11.60;99.90;;;;;;5014877;28;20496;-62
2022/11/07 10:11:31;;;;;;;14.10;4.93;;;11.60;99.90;;;;;;5015004;28;20053;-61
2022/11/07 10:14:07;;;;;;;13.05;5.53;;;11.70;99.90;;;;;;5016461;28;20083;-62
2022/11/07 10:16:46;;;;;;;19.05;5.32;;;11.80;99.90;;;;;;5015601;28;20061;-62
2022/11/07 10:19:26;;;;;;;13.30;6.72;;;11.80;99.90;;;;;;5016085;28;20049;-63
2022/11/07 10:22:05;;;;;;;7.45;4.57;;;11.90;99.90;;;;;;5031793;28;20110;-62
2022/11/07 10:24:47;;;;;;;11.00;4.82;;;11.90;99.90;;;;;;5030490;28;20100;-63
2022/11/07 10:27:14;;;;;;;13.13;4.65;;;12.00;99.90;;;;;;5015639;28;20057;-62
2022/11/07 10:29:45;;;;;;;15.75;5.75;;;12.00;99.90;;;;;;5033169;28;20767;-62
2022/11/07 10:32:22;;;;;;;9.93;4.32;;;12.00;99.90;;;;;;5033754;28;20469;-64
2022/11/07 10:34:56;;;;;;;12.80;4.90;;;12.10;99.90;;;;;;5015373;28;20481;-63
2022/11/07 10:37:23;;;;;;;9.52;4.78;;;12.10;99.90;;;;;;5032859;28;20099;-62
2022/11/07 10:39:50;;;;;;;12.93;5.32;;;12.10;99.90;;;;;;5015410;28;20053;-62
2022/11/07 10:42:19;;;;;;;10.40;5.35;;;12.20;99.90;;;;;;5015138;28;20049;-63
2022/11/07 10:44:47;;;;;;;13.57;4.40;;;12.10;99.90;;;;;;5014893;28;20049;-62
2022/11/07 10:47:21;;;;;;;12.82;5.32;;;12.20;99.90;;;;;;5031238;28;20456;-62
2022/11/07 10:49:56;;;;;;;10.73;4.13;;;12.30;99.90;;;;;;5012030;28;20068;-62
2022/11/07 10:52:24;;;;;;;8.18;4.22;;;12.40;99.90;;;;;;5012741;28;20463;-62
2022/11/07 10:54:51;;;;;;;8.57;4.43;;;12.40;99.90;;;;;;5032090;28;20049;-62
2022/11/07 10:57:19;;;;;;;12.95;4.72;;;12.40;99.90;;;;;;5032360;28;20049;-62
2022/11/07 10:59:55;;;;;;;11.57;3.65;;;12.40;99.90;;;;;;5014764;28;20050;-63
2022/11/07 11:02:25;;;;;;;12.55;4.25;;;12.40;99.90;;;;;;5012419;28;20057;-62
2022/11/07 11:04:54;;;;;;;12.75;4.80;;;12.30;99.90;;;;;;4999334;28;20053;-63
2022/11/07 11:07:24;;;;;;;14.10;4.85;;;12.30;99.90;;;;;;5022137;28;20133;-62
2022/11/07 11:09:53;;;;;;;12.98;5.03;;;12.30;99.90;;;;;;5008164;28;20042;-61
2022/11/07 11:12:24;;;;;;;13.98;4.35;;;12.20;99.90;;;;;;5013820;28;20099;-62
2022/11/07 11:15:02;;;;;;;14.55;4.90;;;12.20;99.90;;;;;;5008402;28;20124;-62
2022/11/07 11:17:30;;;;;;;10.60;4.00;;;12.20;99.90;;;;;;5024404;28;20049;-62
2022/11/07 11:19:57;;;;;;;14.32;4.15;;;12.20;99.90;;;;;;5025840;28;20092;-62
2022/11/07 11:22:27;;;;;;;10.32;4.35;;;12.30;99.90;;;;;;5012261;28;20103;-62
2022/11/07 11:25:04;;;;;;;9.13;4.35;;;12.30;99.90;;;;;;5024389;28;20741;-61
2022/11/07 11:27:34;;;;;;;13.45;3.92;;;12.60;99.90;;;;;;5005965;28;20061;-62
2022/11/07 11:33:45;;;;;;;10.85;3.88;;;12.40;99.90;;;;;;5004636;28;20072;-62
2022/11/07 11:36:18;;;;;;;13.27;5.40;;;12.50;99.90;;;;;;5007676;28;20049;-62
2022/11/07 11:38:53;;;;;;;11.57;4.25;;;12.50;99.90;;;;;;5025114;28;20053;-63
2022/11/07 11:41:24;;;;;;;9.25;5.00;;;12.60;99.90;;;;;;5010218;28;20450;-62
2022/11/07 11:43:58;;;;;;;12.82;4.00;;;12.70;99.90;;;;;;5021175;28;20041;-63
2022/11/07 11:46:30;;;;;;;7.20;4.22;;;12.80;99.90;;;;;;4999838;28;20056;-62
2022/11/07 11:49:04;;;;;;;11.93;4.28;;;12.80;99.90;;;;;;5029090;28;20068;-62
2022/11/07 11:51:38;;;;;;;10.02;4.70;;;12.90;99.90;;;;;;5006547;28;20115;-61
2022/11/07 11:54:09;;;;;;;11.32;4.13;;;13.00;99.90;;;;;;5007552;28;20548;-62
2022/11/07 11:56:47;;;;;;;11.20;4.57;;;13.00;99.90;;;;;;5021678;28;20084;-62
2022/11/07 11:59:37;;;;;;;11.55;4.47;;;13.10;99.90;;;;;;5024574;28;20123;-62
2022/11/07 12:02:27;;;;;;;10.52;4.35;;;13.20;99.90;;;;;;5022803;28;20405;-63
2022/11/07 12:05:02;;;;;;;14.77;4.57;;;13.30;99.90;;;;;;5006621;28;20075;-62
2022/11/07 12:07:45;;;;;;;11.63;4.60;;;13.40;99.90;;;;;;5025104;28;20088;-62
2022/11/07 12:10:18;;;;;;;11.55;4.00;;;13.90;99.90;;;;;;5011700;28;20059;-63
2022/11/07 12:12:55;;;;;;;12.85;4.65;;;14.80;99.90;;;;;;5007874;28;20111;-63
2022/11/07 12:15:36;;;;;;;8.25;3.83;;;14.90;99.90;;;;;;5022576;28;20413;-70
2022/11/07 12:18:11;;;;;;;14.45;4.95;;;14.60;99.90;;;;;;5006396;28;20179;-70
2022/11/07 12:20:51;;;;;;;15.07;4.15;;;14.40;99.90;;;;;;5023288;28;20046;-70
2022/11/07 12:23:29;;;;;;;10.55;3.75;;;14.30;99.90;;;;;;5008382;28;20499;-70
2022/11/07 12:26:04;;;;;;;8.98;4.72;;;14.20;99.90;;;;;;5003348;28;20050;-70
2022/11/07 12:28:45;;;;;;;8.50;4.10;;;14.30;99.90;;;;;;5016506;28;20072;-70
2022/11/07 12:31:26;;;;;;;9.90;4.20;;;14.40;99.90;;;;;;5003122;28;20095;-69
2022/11/07 12:34:03;;;;;;;9.45;3.95;;;14.50;99.90;;;;;;5027664;28;20049;-70
2022/11/07 12:36:45;;;;;;;11.02;3.97;;;14.80;99.90;;;;;;5021356;28;20107;-70
2022/11/07 12:39:34;;;;;;;9.77;3.25;;;15.70;99.90;;;;;;5011494;28;20057;-70
2022/11/07 12:42:07;;;;;;;9.68;3.90;;;16.50;99.90;;;;;;5005506;28;20104;-70
2022/11/07 12:44:52;;;;;;;8.15;3.60;;;16.30;99.90;;;;;;5008293;28;20304;-69
2022/11/07 12:47:37;;;;;;;11.85;3.47;;;16.10;99.90;;;;;;5007103;28;20436;-69
2022/11/07 12:50:22;;;;;;;5.85;3.17;;;16.20;99.90;;;;;;5023706;28;20088;-70
2022/11/07 12:53:02;;;;;;;9.27;3.60;;;16.50;99.90;;;;;;5023066;28;20539;-70
2022/11/07 12:55:36;;;;;;;9.43;3.75;;;16.70;99.90;;;;;;5005633;28;20050;-70
2022/11/07 12:58:05;;;;;;;9.10;3.30;;;16.70;99.90;;;;;;5025991;28;20096;-71
2022/11/07 13:00:32;;;;;;;6.57;2.90;;;16.40;99.90;;;;;;5008935;28;20912;-71
2022/11/07 13:03:18;;;;;;;7.88;3.15;;;15.80;99.90;;;;;;5025640;28;20049;-70